Time;durP1;ratioP1;P1;durP2;ratioP2;P2;SDS_P1;SDS_P2;PMS_P1;PMS_P2;Temp;Humidity;BMP_temperature;BMP_pressure;BME280_temperature;BME280_humidity;BME280_pressure;Samples;Min_cycle;Max_cycle;Signal;HPM_P1;HPM_P2
2022/11/25 00:02:18;;;;;;;16.95;4.75;;;;;;;;;;5020679;28;20056;-74
2022/11/25 00:04:44;;;;;;;14.32;4.32;;;8.10;99.90;;;;;;5048215;28;20598;-74
2022/11/25 00:07:10;;;;;;;13.50;4.68;;;;;;;;;;5016360;28;20042;-73
2022/11/25 00:09:36;;;;;;;14.68;3.83;;;;;;;;;;5022146;28;20433;-74
2022/11/25 00:12:02;;;;;;;11.68;3.35;;;;;;;;;;5031426;28;20041;-74
2022/11/25 00:14:28;;;;;;;15.25;3.88;;;;;;;;;;5005862;28;20037;-73
2022/11/25 00:16:54;;;;;;;14.48;3.60;;;8.10;99.90;;;;;;5011638;28;20095;-73
2022/11/25 00:19:20;;;;;;;12.13;4.05;;;;;;;;;;5019990;28;20033;-73
2022/11/25 00:21:45;;;;;;;16.05;3.80;;;8.10;99.90;;;;;;5038686;28;20044;-74
2022/11/25 00:24:13;;;;;;;15.20;4.45;;;;;;;;;;5017272;28;20033;-73
2022/11/25 00:26:39;;;;;;;12.68;3.65;;;;;;;;;;5048435;28;20052;-73
2022/11/25 00:29:06;;;;;;;15.05;4.03;;;;;;;;;;5031997;28;20040;-73
2022/11/25 00:31:34;;;;;;;14.35;4.22;;;;;;;;;;5039390;28;20406;-73
2022/11/25 00:34:00;;;;;;;13.27;4.20;;;;;;;;;;5030556;22;20120;-56
2022/11/25 00:36:27;;;;;;;14.80;3.83;;;;;;;;;;5079962;22;20045;-63
2022/11/25 00:38:58;;;;;;;15.38;3.80;;;;;;;;;;5037726;28;20048;-63
2022/11/25 00:44:34;;;;;;;13.95;3.35;;;8.30;99.90;;;;;;5044024;28;20045;-62
2022/11/25 00:47:01;;;;;;;12.32;3.45;;;;;;;;;;5039382;28;20406;-62
2022/11/25 00:49:27;;;;;;;19.92;3.97;;;;;;;;;;5036321;28;20041;-62
2022/11/25 00:51:53;;;;;;;14.98;3.47;;;;;;;;;;5036101;28;20049;-62
2022/11/25 00:54:19;;;;;;;15.18;3.60;;;;;;;;;;5036333;28;20033;-63
2022/11/25 00:56:45;;;;;;;12.20;4.25;;;8.20;99.90;;;;;;5033956;28;20120;-62
2022/11/25 00:59:10;;;;;;;12.43;3.63;;;8.20;99.90;;;;;;5041621;28;20478;-62
2022/11/25 01:01:37;;;;;;;17.48;4.13;;;;;;;;;;5041703;28;20045;-62
2022/11/25 01:04:03;;;;;;;16.20;3.70;;;8.30;99.90;;;;;;5039335;28;20444;-63
2022/11/25 01:06:30;;;;;;;13.60;3.50;;;8.10;99.90;;;;;;5029520;28;20049;-62
2022/11/25 01:08:55;;;;;;;14.07;3.72;;;8.10;99.90;;;;;;5032264;28;20084;-63
2022/11/25 01:11:22;;;;;;;13.70;3.47;;;;;;;;;;5027631;28;20065;-62
2022/11/25 01:13:48;;;;;;;13.35;4.30;;;;;;;;;;5032844;28;20049;-62
2022/11/25 01:16:16;;;;;;;15.40;3.85;;;;;;;;;;5035655;28;20348;-63
2022/11/25 01:18:42;;;;;;;12.77;3.00;;;;;;;;;;5032735;28;20049;-62
2022/11/25 01:21:11;;;;;;;15.70;4.50;;;;;;;;;;5044073;28;20096;-62
2022/11/25 01:23:37;;;;;;;15.10;3.22;;;;;;;;;;5036773;28;20414;-62
2022/11/25 01:26:04;;;;;;;14.20;3.58;;;;;;;;;;5040331;28;20050;-62
2022/11/25 01:28:30;;;;;;;20.02;4.18;;;8.10;99.90;;;;;;5044377;28;20037;-62
2022/11/25 01:31:00;;;;;;;13.40;3.75;;;;;;;;;;5043183;28;20388;-62
2022/11/25 01:33:26;;;;;;;13.70;3.53;;;;;;;;;;5041385;28;20037;-62
2022/11/25 01:35:52;;;;;;;17.60;3.88;;;;;;;;;;5040826;28;20061;-62
2022/11/25 01:38:18;;;;;;;14.95;4.13;;;;;;;;;;5036851;28;20044;-62
2022/11/25 01:40:44;;;;;;;12.85;3.20;;;8.20;99.90;;;;;;5040747;28;20088;-62
2022/11/25 01:43:16;;;;;;;12.00;4.05;;;;;;;;;;5033292;28;20380;-62
2022/11/25 01:45:41;;;;;;;10.43;4.10;;;8.30;99.90;;;;;;5041775;28;20086;-62
2022/11/25 01:48:14;;;;;;;13.38;3.90;;;;;;;;;;5047368;28;20037;-63
2022/11/25 01:50:41;;;;;;;15.32;4.32;;;7.40;99.90;;;;;;5049370;28;20083;-64
2022/11/25 01:53:09;;;;;;;21.75;4.00;;;;;;;;;;5040692;28;20095;-65
2022/11/25 01:55:36;;;;;;;14.48;4.63;;;;;;;;;;5042314;28;20124;-64
2022/11/25 01:58:02;;;;;;;13.95;4.03;;;;;;;;;;5037930;28;20080;-65
2022/11/25 02:00:28;;;;;;;12.65;4.68;;;;;;;;;;5041833;28;20068;-65
2022/11/25 02:02:55;;;;;;;13.57;4.38;;;;;;;;;;5038959;28;20041;-65
2022/11/25 02:05:39;;;;;;;16.67;5.03;;;;;;;;;;5042272;28;20038;-65
2022/11/25 02:08:06;;;;;;;13.85;4.00;;;;;;;;;;5047719;28;20069;-65
2022/11/25 02:10:33;;;;;;;17.88;4.75;;;;;;;;;;5039943;28;20145;-65
2022/11/25 02:12:59;;;;;;;15.52;3.85;;;;;;;;;;5036920;28;20049;-65
2022/11/25 02:15:25;;;;;;;11.10;3.80;;;;;;;;;;5039240;28;20079;-65
2022/11/25 02:17:52;;;;;;;14.77;4.28;;;;;;;;;;5035770;28;20037;-65
2022/11/25 02:20:19;;;;;;;17.50;4.30;;;;;;;;;;5036917;28;20044;-65
2022/11/25 02:22:48;;;;;;;13.90;4.40;;;;;;;;;;5041644;28;20580;-65
2022/11/25 02:25:16;;;;;;;12.32;3.90;;;;;;;;;;5037372;28;20033;-66
2022/11/25 02:27:44;;;;;;;19.88;5.03;;;7.50;99.90;;;;;;5041051;28;20087;-66
2022/11/25 02:30:11;;;;;;;18.20;4.47;;;;;;;;;;5044454;28;20033;-66
2022/11/25 02:32:42;;;;;;;12.93;4.25;;;;;;;;;;5046857;28;20048;-66
2022/11/25 02:35:23;;;;;;;14.02;4.43;;;;;;;;;;5042396;28;20064;-66
2022/11/25 02:37:49;;;;;;;17.75;5.82;;;;;;;;;;5033664;28;20044;-66
2022/11/25 02:40:16;;;;;;;15.07;4.50;;;;;;;;;;5039301;28;20508;-66
2022/11/25 02:42:43;;;;;;;16.05;4.70;;;;;;;;;;5032541;28;20081;-66
2022/11/25 02:45:11;;;;;;;15.32;4.28;;;;;;;;;;5047235;28;20075;-66
2022/11/25 02:47:37;;;;;;;17.85;4.60;;;8.00;99.90;;;;;;5023909;28;20487;-67
2022/11/25 02:50:03;;;;;;;15.57;4.50;;;;;;;;;;5045797;28;20036;-66
2022/11/25 02:52:29;;;;;;;11.95;4.60;;;;;;;;;;5052583;28;20036;-66
2022/11/25 02:54:55;;;;;;;17.02;4.55;;;;;;;;;;5047771;28;20352;-66
2022/11/25 02:57:21;;;;;;;13.18;3.88;;;;;;;;;;5050687;28;20057;-66
2022/11/25 02:59:47;;;;;;;14.98;4.75;;;8.00;99.90;;;;;;5042347;28;20522;-66
2022/11/25 03:04:47;;;;;;;22.50;5.87;;;;;;;;;;5026325;28;20561;-58
2022/11/25 03:07:13;;;;;;;22.17;4.78;;;;;;;;;;5035689;28;20268;-58
2022/11/25 03:09:39;;;;;;;25.15;6.03;;;;;;;;;;5047344;28;20033;-54
2022/11/25 03:12:20;;;;;;;14.07;5.07;;;8.10;99.90;;;;;;5043209;28;20040;-56
2022/11/25 03:14:46;;;;;;;15.77;4.63;;;;;;;;;;5059152;22;20646;-50
2022/11/25 03:17:12;;;;;;;16.10;4.82;;;;;;;;;;5046572;28;20052;-52
2022/11/25 03:19:38;;;;;;;14.60;4.43;;;8.10;99.90;;;;;;5043501;28;20577;-51
2022/11/25 03:22:04;;;;;;;15.57;5.05;;;;;;;;;;5049189;28;20041;-51
2022/11/25 03:24:31;;;;;;;18.73;5.68;;;;;;;;;;5028477;28;20065;-50
2022/11/25 03:26:57;;;;;;;16.90;5.88;;;;;;;;;;5034063;28;20051;-52
2022/11/25 03:29:23;;;;;;;17.48;5.93;;;8.00;99.90;;;;;;5047024;28;20045;-51
2022/11/25 03:31:49;;;;;;;17.35;5.28;;;;;;;;;;5043545;28;20434;-53
2022/11/25 03:34:15;;;;;;;13.75;5.47;;;;;;;;;;5047901;28;20129;-49
2022/11/25 03:36:41;;;;;;;13.63;5.47;;;;;;;;;;5043367;28;20080;-51
2022/11/25 03:39:07;;;;;;;20.05;5.72;;;;;;;;;;5024587;28;20033;-50
2022/11/25 03:41:33;;;;;;;17.23;5.43;;;;;;;;;;5045823;28;20128;-52
2022/11/25 03:43:58;;;;;;;15.07;5.40;;;8.30;99.90;;;;;;5023746;28;20128;-51
2022/11/25 03:46:24;;;;;;;15.27;4.85;;;;;;;;;;5047711;28;20039;-52
2022/11/25 03:48:50;;;;;;;20.85;6.00;;;;;;;;;;5043645;28;20036;-52
2022/11/25 03:51:16;;;;;;;16.35;6.22;;;;;;;;;;5047845;28;20494;-50
2022/11/25 03:53:42;;;;;;;17.00;6.20;;;;;;;;;;5043618;28;20077;-50
2022/11/25 03:56:08;;;;;;;16.27;5.20;;;;;;;;;;5025255;28;20041;-49
2022/11/25 03:58:35;;;;;;;18.23;6.25;;;;;;;;;;5045897;28;20110;-50
2022/11/25 04:01:01;;;;;;;13.15;5.45;;;;;;;;;;5042825;28;20486;-49
2022/11/25 04:03:27;;;;;;;14.73;5.40;;;;;;;;;;5047199;28;20069;-50
2022/11/25 04:05:53;;;;;;;17.67;5.70;;;;;;;;;;5043876;28;20052;-52
2022/11/25 04:08:19;;;;;;;14.82;4.97;;;;;;;;;;5047781;28;20547;-52
2022/11/25 04:10:45;;;;;;;15.73;5.43;;;;;;;;;;5042835;28;20040;-52
2022/11/25 04:13:11;;;;;;;15.77;5.70;;;;;;;;;;5043744;28;20048;-51
2022/11/25 04:15:42;;;;;;;16.00;5.75;;;8.30;99.90;;;;;;5047138;28;20457;-51
2022/11/25 04:18:08;;;;;;;18.40;6.05;;;;;;;;;;5044493;28;20418;-52
2022/11/25 04:20:34;;;;;;;16.42;6.13;;;;;;;;;;5047752;28;20120;-49
2022/11/25 04:23:00;;;;;;;16.77;5.82;;;;;;;;;;5042109;28;20380;-51
2022/11/25 04:25:26;;;;;;;14.10;6.35;;;;;;;;;;5044947;28;20170;-51
2022/11/25 04:27:52;;;;;;;18.10;7.00;;;;;;;;;;5043813;28;20133;-50
2022/11/25 04:30:18;;;;;;;17.95;6.28;;;8.20;99.90;;;;;;5044904;28;20037;-52
2022/11/25 04:32:44;;;;;;;15.73;6.85;;;;;;;;;;5029245;28;20049;-50
2022/11/25 04:35:10;;;;;;;22.52;6.93;;;8.20;99.90;;;;;;5043433;28;20117;-51
2022/11/25 04:37:36;;;;;;;16.75;6.40;;;;;;;;;;5047358;28;20506;-49
2022/11/25 04:40:02;;;;;;;13.82;6.43;;;;;;;;;;5040393;28;20506;-53
2022/11/25 04:42:31;;;;;;;18.80;6.93;;;;;;;;;;5045287;28;20055;-50
2022/11/25 04:45:01;;;;;;;14.88;6.47;;;8.10;99.90;;;;;;5039971;28;20033;-52
2022/11/25 04:47:28;;;;;;;19.63;6.65;;;8.00;99.90;;;;;;5045209;28;20033;-49
2022/11/25 04:49:55;;;;;;;15.98;7.03;;;;;;;;;;5044236;28;20407;-52
2022/11/25 04:52:21;;;;;;;16.88;7.60;;;;;;;;;;5045398;28;20099;-49
2022/11/25 04:54:47;;;;;;;18.20;7.68;;;;;;;;;;5046717;28;20047;-49
2022/11/25 04:57:13;;;;;;;17.27;6.50;;;;;;;;;;5039038;28;20044;-49
2022/11/25 04:59:39;;;;;;;20.67;7.18;;;;;;;;;;5026964;28;20083;-50
2022/11/25 05:02:27;;;;;;;23.25;6.80;;;;;;;;;;5041653;28;20091;-52
2022/11/25 05:04:55;;;;;;;21.63;7.32;;;;;;;;;;5042282;28;20041;-50
2022/11/25 05:07:21;;;;;;;21.25;7.60;;;;;;;;;;5041014;28;20033;-50
2022/11/25 05:09:47;;;;;;;23.13;8.15;;;8.00;99.90;;;;;;5049258;28;20037;-51
2022/11/25 05:12:18;;;;;;;19.23;8.15;;;8.60;99.90;;;;;;5023097;28;20067;-51
2022/11/25 05:14:44;;;;;;;21.10;7.75;;;;;;;;;;5045307;28;20129;-51
2022/11/25 05:17:12;;;;;;;25.17;7.63;;;;;;;;;;5043822;28;20033;-52
2022/11/25 05:19:38;;;;;;;22.00;7.90;;;;;;;;;;5029212;28;20129;-49
2022/11/25 05:22:04;;;;;;;19.75;7.80;;;;;;;;;;5045039;28;20500;-50
2022/11/25 05:24:30;;;;;;;26.27;8.60;;;;;;;;;;5022861;28;20045;-53
2022/11/25 05:26:56;;;;;;;21.38;8.15;;;8.10;99.90;;;;;;5023643;28;20072;-51
2022/11/25 05:29:22;;;;;;;24.10;8.82;;;8.10;99.90;;;;;;5031154;28;20108;-53
2022/11/25 05:31:48;;;;;;;19.95;8.07;;;;;;;;;;5022105;28;20041;-48
2022/11/25 05:34:14;;;;;;;18.27;7.25;;;;;;;;;;5032305;28;20033;-49
2022/11/25 05:36:40;;;;;;;18.38;7.82;;;;;;;;;;5044061;28;20039;-52
2022/11/25 05:39:06;;;;;;;22.05;7.18;;;;;;;;;;5036722;28;20344;-53
2022/11/25 05:41:32;;;;;;;21.40;7.50;;;;;;;;;;5037574;28;20192;-52
2022/11/25 05:43:58;;;;;;;19.17;8.32;;;;;;;;;;5041134;28;20128;-51
2022/11/25 05:46:24;;;;;;;19.65;7.57;;;;;;;;;;5031870;28;20049;-51
2022/11/25 05:48:54;;;;;;;18.75;8.13;;;8.50;99.90;;;;;;5035238;28;20037;-52
2022/11/25 05:51:20;;;;;;;17.77;7.68;;;;;;;;;;5022349;28;20045;-52
2022/11/25 05:53:48;;;;;;;21.17;7.30;;;;;;;;;;5025921;28;20121;-49
2022/11/25 05:56:14;;;;;;;19.30;7.88;;;;;;;;;;5044554;28;20033;-52
2022/11/25 05:58:40;;;;;;;18.02;7.40;;;;;;;;;;5023464;28;20041;-52
2022/11/25 06:01:07;;;;;;;19.83;7.22;;;;;;;;;;5010166;28;20469;-51
2022/11/25 06:03:34;;;;;;;15.25;7.03;;;8.40;99.90;;;;;;5010855;28;20052;-51
2022/11/25 06:06:00;;;;;;;17.30;6.72;;;;;;;;;;5001227;28;20136;-52
2022/11/25 06:08:26;;;;;;;15.98;6.90;;;;;;;;;;5005485;28;20045;-53
2022/11/25 06:10:53;;;;;;;22.73;7.53;;;;;;;;;;5035427;28;20072;-52
2022/11/25 06:13:20;;;;;;;18.98;6.88;;;;;;;;;;5037356;28;20502;-53
2022/11/25 06:15:47;;;;;;;19.63;6.25;;;;;;;;;;5014075;28;20037;-51
2022/11/25 06:18:15;;;;;;;17.73;7.35;;;;;;;;;;5025433;28;20037;-48
2022/11/25 06:20:41;;;;;;;20.05;8.23;;;;;;;;;;5041130;28;20037;-50
2022/11/25 06:23:07;;;;;;;17.10;8.55;;;;;;;;;;5022636;28;20337;-52
2022/11/25 06:25:33;;;;;;;25.27;7.50;;;;;;;;;;5043043;28;20037;-49
2022/11/25 06:28:00;;;;;;;16.77;7.40;;;8.40;99.90;;;;;;5036082;28;20305;-48
2022/11/25 06:30:29;;;;;;;14.88;6.68;;;;;;;;;;5036861;28;20515;-49
2022/11/25 06:32:56;;;;;;;17.80;6.90;;;;;;;;;;5040912;28;20036;-49
2022/11/25 06:35:22;;;;;;;16.98;6.97;;;;;;;;;;5045970;28;20094;-50
2022/11/25 06:37:48;;;;;;;19.85;7.72;;;;;;;;;;5019824;28;20422;-50
2022/11/25 06:40:14;;;;;;;16.42;6.45;;;;;;;;;;5041758;28;20037;-49
2022/11/25 06:42:42;;;;;;;22.70;6.88;;;;;;;;;;5024021;28;20046;-51
2022/11/25 06:45:08;;;;;;;16.23;6.47;;;;;;;;;;5030019;28;20045;-51
2022/11/25 06:47:34;;;;;;;19.35;6.68;;;;;;;;;;5017775;28;20096;-51
2022/11/25 06:50:00;;;;;;;15.85;5.90;;;8.20;99.90;;;;;;5018361;28;20071;-49
2022/11/25 06:52:26;;;;;;;16.73;6.55;;;;;;;;;;5016012;28;20454;-49
2022/11/25 06:54:52;;;;;;;15.73;6.20;;;;;;;;;;5020336;28;20033;-49
2022/11/25 06:57:19;;;;;;;22.50;7.00;;;;;;;;;;5023916;28;20034;-51
2022/11/25 06:59:45;;;;;;;14.18;6.82;;;;;;;;;;5029813;28;20045;-51
2022/11/25 07:02:12;;;;;;;13.15;5.13;;;;;;;;;;5020615;28;20041;-48
2022/11/25 07:04:39;;;;;;;14.18;6.45;;;;;;;;;;5031337;28;20045;-48
2022/11/25 07:07:05;;;;;;;22.40;7.60;;;;;;;;;;5015149;28;20049;-48
2022/11/25 07:09:31;;;;;;;18.90;6.40;;;;;;;;;;5013512;28;20403;-49
2022/11/25 07:11:57;;;;;;;17.10;6.38;;;7.90;99.90;;;;;;5026468;28;20037;-49
2022/11/25 07:14:23;;;;;;;15.35;5.80;;;;;;;;;;5026830;28;20045;-49
2022/11/25 07:16:49;;;;;;;13.25;5.93;;;8.10;99.90;;;;;;5028203;28;20556;-48
2022/11/25 07:19:17;;;;;;;18.10;6.13;;;8.40;99.90;;;;;;5032155;28;20033;-50
2022/11/25 07:21:44;;;;;;;15.48;6.40;;;;;;;;;;5000585;28;20076;-51
2022/11/25 07:24:14;;;;;;;19.85;6.22;;;;;;;;;;5026714;28;20443;-48
2022/11/25 07:26:41;;;;;;;14.07;6.18;;;7.90;99.90;;;;;;5034806;28;20037;-51
2022/11/25 07:29:10;;;;;;;17.65;7.00;;;7.50;99.90;;;;;;5043045;28;20048;-51
2022/11/25 07:31:37;;;;;;;15.40;6.72;;;;;;;;;;5031541;28;20048;-51
2022/11/25 07:34:06;;;;;;;18.35;6.10;;;8.50;99.90;;;;;;5044965;28;20423;-50
2022/11/25 07:36:33;;;;;;;13.30;5.80;;;7.80;99.90;;;;;;5030871;28;20029;-51
2022/11/25 07:39:00;;;;;;;21.52;6.55;;;;;;;;;;5038477;28;20108;-51
2022/11/25 07:41:27;;;;;;;14.68;5.97;;;;;;;;;;5031922;28;20056;-49
2022/11/25 07:43:54;;;;;;;15.82;6.80;;;;;;;;;;5029495;28;20059;-48
2022/11/25 07:46:21;;;;;;;16.88;6.45;;;;;;;;;;5012708;28;20045;-52
2022/11/25 07:48:48;;;;;;;18.95;6.97;;;;;;;;;;5010539;28;20066;-49
2022/11/25 07:51:17;;;;;;;13.05;6.95;;;;;;;;;;5027841;28;20045;-50
2022/11/25 07:53:44;;;;;;;14.43;6.60;;;;;;;;;;5033887;28;20423;-50
2022/11/25 07:56:10;;;;;;;20.65;6.78;;;;;;;;;;5029600;28;20029;-51
2022/11/25 07:58:36;;;;;;;16.10;6.68;;;;;;;;;;5029260;28;20597;-51
2022/11/25 08:01:03;;;;;;;15.85;7.47;;;;;;;;;;5029566;28;20246;-48
2022/11/25 08:03:29;;;;;;;17.05;6.45;;;;;;;;;;5023204;28;20407;-52
2022/11/25 08:06:05;;;;;;;16.95;6.93;;;;;;;;;;5030577;28;20037;-51
2022/11/25 08:08:31;;;;;;;13.95;6.88;;;;;;;;;;5010208;28;20045;-50
2022/11/25 08:10:57;;;;;;;17.02;7.03;;;;;;;;;;5029743;28;20180;-52
2022/11/25 08:13:24;;;;;;;21.50;6.78;;;;;;;;;;5027844;28;20366;-51
2022/11/25 08:15:50;;;;;;;20.23;6.65;;;7.10;99.90;;;;;;5025188;28;20072;-52
2022/11/25 08:18:16;;;;;;;14.57;7.00;;;7.20;99.90;;;;;;5028978;28;20138;-51
2022/11/25 08:20:42;;;;;;;13.63;6.53;;;7.10;99.90;;;;;;5035138;28;20037;-50
2022/11/25 08:23:09;;;;;;;17.70;7.20;;;;;;;;;;5026099;28;20483;-49
2022/11/25 08:25:41;;;;;;;14.40;6.40;;;;;;;;;;5032253;28;20045;-50
2022/11/25 08:28:07;;;;;;;18.83;7.82;;;;;;;;;;5025447;28;20033;-49
2022/11/25 08:30:34;;;;;;;14.85;6.65;;;;;;;;;;5031790;28;20037;-49
2022/11/25 08:33:03;;;;;;;14.30;6.47;;;;;;;;;;5029540;28;20036;-51
2022/11/25 08:35:31;;;;;;;16.65;6.80;;;;;;;;;;5031012;28;20041;-51
2022/11/25 08:38:00;;;;;;;14.27;7.07;;;;;;;;;;5005592;28;20025;-51
2022/11/25 08:40:26;;;;;;;18.25;7.50;;;;;;;;;;5023505;28;20408;-47
2022/11/25 08:42:52;;;;;;;15.90;7.65;;;;;;;;;;5017871;28;20064;-51
2022/11/25 08:45:18;;;;;;;17.92;7.85;;;7.30;99.90;;;;;;5007177;28;20137;-50
2022/11/25 08:47:44;;;;;;;13.85;7.47;;;7.30;99.90;;;;;;5036048;28;20052;-49
2022/11/25 08:50:12;;;;;;;20.17;8.35;;;7.40;99.90;;;;;;5036625;28;20403;-50
2022/11/25 08:52:38;;;;;;;16.83;7.32;;;;;;;;;;5038900;28;20094;-48
2022/11/25 08:55:04;;;;;;;14.95;8.05;;;6.90;99.90;;;;;;5032577;28;20068;-51
2022/11/25 08:57:30;;;;;;;14.52;7.10;;;;;;;;;;5023940;28;20451;-50
2022/11/25 08:59:56;;;;;;;17.35;7.32;;;;;;;;;;5028569;28;20053;-49
2022/11/25 09:02:23;;;;;;;17.23;7.13;;;;;;;;;;5024164;28;20030;-48
2022/11/25 09:04:49;;;;;;;15.45;6.95;;;7.70;99.90;;;;;;5015438;28;20052;-47
2022/11/25 09:07:15;;;;;;;17.30;6.47;;;;;;;;;;5035195;28;20294;-52
2022/11/25 09:09:41;;;;;;;11.90;6.30;;;;;;;;;;5040719;28;20041;-49
2022/11/25 09:12:07;;;;;;;19.83;7.00;;;;;;;;;;5031257;28;20048;-47
2022/11/25 09:14:33;;;;;;;13.75;6.07;;;;;;;;;;5037874;28;20037;-50
2022/11/25 09:17:00;;;;;;;12.70;6.20;;;;;;;;;;5110747;22;20576;-58
2022/11/25 09:19:27;;;;;;;13.25;6.20;;;;;;;;;;5048981;28;20048;-59
2022/11/25 09:21:53;;;;;;;10.85;6.60;;;;;;;;;;5051455;28;20112;-59
2022/11/25 09:24:20;;;;;;;15.60;6.30;;;;;;;;;;5048722;28;20043;-58
2022/11/25 09:26:48;;;;;;;16.30;5.70;;;;;;;;;;5030933;28;20049;-59
2022/11/25 09:29:14;;;;;;;12.68;5.88;;;;;;;;;;5048341;28;20068;-58
2022/11/25 09:31:40;;;;;;;13.68;5.70;;;;;;;;;;5048680;28;20079;-58
2022/11/25 09:34:07;;;;;;;12.43;5.78;;;8.30;99.90;;;;;;5048664;28;20467;-59
2022/11/25 09:36:34;;;;;;;14.43;6.05;;;;;;;;;;5048861;28;20557;-57
2022/11/25 09:39:00;;;;;;;12.15;5.30;;;;;;;;;;5056114;28;20037;-58
2022/11/25 09:48:08;;;;;;;10.80;4.72;;;;;;;;;;5050972;28;20045;-59
2022/11/25 09:51:11;;;;;;;13.70;4.20;;;9.40;99.90;;;;;;5050756;28;20040;-59
2022/11/25 09:53:43;;;;;;;14.02;6.00;;;;;;;;;;5049052;28;20591;-59
2022/11/25 09:56:18;;;;;;;13.27;4.78;;;;;;;;;;5052319;28;20083;-58
2022/11/25 09:58:47;;;;;;;14.15;4.57;;;;;;;;;;5032198;28;20120;-59
2022/11/25 10:01:15;;;;;;;11.93;4.70;;;;;;;;;;5052881;28;20128;-59
2022/11/25 10:03:59;;;;;;;11.32;4.20;;;9.60;99.90;;;;;;5051780;28;20051;-59
2022/11/25 10:06:30;;;;;;;9.68;4.63;;;;;;;;;;5052210;28;20056;-59
2022/11/25 10:09:14;;;;;;;9.90;3.95;;;8.90;99.90;;;;;;5039690;28;20175;-59
2022/11/25 10:11:40;;;;;;;10.32;3.45;;;;;;;;;;5054718;28;20510;-59
2022/11/25 10:14:18;;;;;;;14.52;4.70;;;;;;;;;;5064359;28;20131;-59
2022/11/25 10:16:52;;;;;;;8.07;3.83;;;;;;;;;;5044854;28;20124;-58
2022/11/25 10:19:46;;;;;;;10.65;4.57;;;9.70;99.90;;;;;;5038305;28;20033;-59
2022/11/25 10:22:18;;;;;;;11.25;4.28;;;;;;;;;;5052936;28;20094;-59
2022/11/25 10:24:44;;;;;;;10.02;4.38;;;;;;;;;;5036992;28;20044;-59
2022/11/25 10:27:18;;;;;;;10.18;4.07;;;10.20;99.90;;;;;;5059891;28;20116;-59
2022/11/25 10:29:48;;;;;;;7.63;3.63;;;;;;;;;;5055819;28;20128;-59
2022/11/25 10:32:24;;;;;;;10.52;4.05;;;;;;;;;;5060204;28;20529;-59
2022/11/25 10:34:53;;;;;;;10.75;3.88;;;;;;;;;;5053857;28;20037;-59
2022/11/25 10:37:46;;;;;;;14.43;4.60;;;10.30;99.90;;;;;;5056823;28;20552;-58
2022/11/25 10:40:16;;;;;;;12.52;4.07;;;;;;;;;;5046662;28;20041;-59
2022/11/25 10:42:42;;;;;;;11.15;4.45;;;;;;;;;;5051191;28;20052;-58
2022/11/25 10:45:09;;;;;;;9.07;3.67;;;;;;;;;;5053250;28;20044;-59
2022/11/25 10:47:52;;;;;;;15.60;4.03;;;9.40;99.90;;;;;;5057213;28;20094;-59
2022/11/25 10:50:56;;;;;;;12.77;3.80;;;10.60;99.90;;;;;;5049305;28;20086;-59
2022/11/25 10:53:24;;;;;;;13.77;4.00;;;;;;;;;;4986804;28;20110;-59
2022/11/25 10:55:56;;;;;;;15.20;4.00;;;;;;;;;;5049440;28;20329;-59
2022/11/25 10:58:26;;;;;;;11.55;3.85;;;;;;;;;;5033101;28;20075;-59
2022/11/25 11:01:12;;;;;;;13.90;3.30;;;10.50;99.90;;;;;;5050850;28;20394;-59
2022/11/25 11:03:39;;;;;;;10.70;3.30;;;;;;;;;;5050443;28;20471;-59
2022/11/25 11:06:05;;;;;;;16.15;4.40;;;;;;;;;;5051184;28;20041;-59
2022/11/25 11:08:39;;;;;;;12.65;3.47;;;10.60;99.90;;;;;;5050445;28;20064;-59
2022/11/25 11:11:17;;;;;;;11.35;3.10;;;10.00;99.90;;;;;;5054976;28;20036;-58
2022/11/25 11:13:43;;;;;;;13.88;3.22;;;;;;;;;;5049437;28;20045;-59
2022/11/25 11:16:35;;;;;;;10.38;3.83;;;10.60;99.90;;;;;;5050627;28;20415;-59
2022/11/25 11:19:01;;;;;;;12.10;3.72;;;10.40;99.90;;;;;;5048350;28;20414;-58
2022/11/25 11:21:30;;;;;;;9.20;3.22;;;;;;;;;;5033878;28;20040;-59
2022/11/25 11:23:58;;;;;;;16.42;4.32;;;;;;;;;;5050831;28;20075;-59
2022/11/25 11:26:26;;;;;;;10.25;3.28;;;;;;;;;;5050608;28;20068;-59
2022/11/25 11:29:00;;;;;;;11.07;3.63;;;;;;;;;;5050474;28;20091;-59
2022/11/25 11:31:53;;;;;;;14.52;4.07;;;10.90;99.90;;;;;;5048209;28;20094;-59
2022/11/25 11:34:34;;;;;;;10.05;3.00;;;10.50;99.90;;;;;;5026906;28;20557;-59
2022/11/25 11:37:12;;;;;;;12.27;3.55;;;;;;;;;;5028388;28;20033;-59
2022/11/25 11:39:50;;;;;;;11.77;3.45;;;;;;;;;;5032618;28;20457;-59
2022/11/25 11:42:55;;;;;;;12.98;4.47;;;;;;;;;;5030856;28;20069;-57
2022/11/25 11:45:24;;;;;;;13.40;4.22;;;;;;;;;;5040141;28;20072;-57
2022/11/25 11:47:53;;;;;;;12.02;2.90;;;;;;;;;;5030426;28;20562;-57
2022/11/25 11:50:22;;;;;;;10.27;2.97;;;;;;;;;;5032384;28;20072;-57
2022/11/25 11:53:08;;;;;;;15.25;3.42;;;;;;;;;;5050092;28;20071;-58
2022/11/25 11:55:59;;;;;;;14.77;3.42;;;11.30;99.90;;;;;;5046868;28;20487;-57
2022/11/25 11:58:28;;;;;;;13.77;3.30;;;;;;;;;;5032458;28;20045;-56
2022/11/25 12:01:01;;;;;;;9.43;2.97;;;;;;;;;;5049395;28;20059;-57
2022/11/25 12:03:35;;;;;;;15.35;3.75;;;;;;;;;;5046455;28;20033;-57
2022/11/25 12:06:03;;;;;;;11.35;2.58;;;;;;;;;;5048219;28;20032;-57
2022/11/25 12:08:48;;;;;;;11.52;2.90;;;11.60;99.90;;;;;;5048783;28;20041;-58
2022/11/25 12:11:16;;;;;;;14.07;3.30;;;;;;;;;;5047750;28;20048;-57
2022/11/25 12:13:42;;;;;;;14.18;3.33;;;;;;;;;;5050435;28;20048;-58
2022/11/25 12:16:14;;;;;;;13.82;3.33;;;11.20;99.90;;;;;;5029433;28;20344;-58
2022/11/25 12:19:03;;;;;;;10.25;3.00;;;12.00;99.90;;;;;;5048082;28;20509;-58
2022/11/25 12:21:45;;;;;;;13.30;2.72;;;;;;;;;;5048046;28;20033;-57
2022/11/25 12:24:26;;;;;;;15.00;3.55;;;;;;;;;;5046866;28;20029;-57
2022/11/25 12:27:00;;;;;;;15.23;3.15;;;;;;;;;;5047544;28;20055;-57
2022/11/25 12:29:38;;;;;;;10.50;2.80;;;15.50;99.90;;;;;;5048269;28;20136;-57
2022/11/25 12:32:29;;;;;;;10.88;3.25;;;;;;;;;;5050672;28;20078;-57
2022/11/25 12:35:02;;;;;;;10.15;3.08;;;;;;;;;;5028748;28;20048;-57
2022/11/25 12:37:48;;;;;;;14.20;3.35;;;;;;;;;;5047589;28;20041;-58
2022/11/25 12:40:20;;;;;;;10.88;2.70;;;;;;;;;;5047974;28;20043;-57
2022/11/25 12:42:48;;;;;;;14.80;3.53;;;;;;;;;;5048214;28;20066;-57
2022/11/25 12:45:24;;;;;;;10.00;2.60;;;;;;;;;;5048528;28;20425;-58
2022/11/25 12:47:50;;;;;;;11.00;3.25;;;14.80;99.90;;;;;;5047537;28;20407;-58
2022/11/25 12:50:20;;;;;;;14.80;3.50;;;;;;;;;;5048338;28;20103;-57
2022/11/25 12:52:51;;;;;;;11.60;3.08;;;;;;;;;;5048187;28;20040;-57
2022/11/25 12:55:19;;;;;;;9.27;2.55;;;;;;;;;;5050058;28;20037;-57
2022/11/25 12:57:45;;;;;;;14.57;3.05;;;;;;;;;;5029782;28;20182;-57
2022/11/25 13:00:17;;;;;;;16.88;2.95;;;;;;;;;;5032263;28;20162;-58
2022/11/25 13:03:01;;;;;;;13.25;3.13;;;13.40;99.90;;;;;;5054230;28;20041;-57
2022/11/25 13:05:50;;;;;;;14.75;3.78;;;;;;;;;;5049004;28;20033;-58
2022/11/25 13:08:37;;;;;;;15.60;3.50;;;12.70;99.90;;;;;;5045914;28;20048;-57
2022/11/25 13:11:29;;;;;;;16.50;3.22;;;13.20;99.90;;;;;;5049905;28;20040;-57
2022/11/25 13:14:14;;;;;;;10.70;2.78;;;;;;;;;;5049474;28;20032;-57
2022/11/25 13:16:40;;;;;;;11.93;2.65;;;;;;;;;;5050977;28;20120;-58
2022/11/25 13:19:11;;;;;;;12.15;3.35;;;14.00;99.90;;;;;;5051406;28;20541;-58
2022/11/25 13:21:54;;;;;;;13.52;3.38;;;;;;;;;;5050622;28;20041;-58
2022/11/25 13:24:27;;;;;;;9.85;2.58;;;;;;;;;;5050793;28;20179;-58
2022/11/25 13:26:53;;;;;;;10.40;3.00;;;;;;;;;;5049267;28;20048;-58
2022/11/25 13:29:22;;;;;;;15.32;4.22;;;;;;;;;;5054283;28;20036;-57
2022/11/25 13:31:56;;;;;;;13.63;2.90;;;;;;;;;;5052083;28;20280;-58
2022/11/25 13:34:26;;;;;;;15.68;3.20;;;;;;;;;;5051214;28;20044;-58
2022/11/25 13:36:54;;;;;;;13.05;3.28;;;;;;;;;;5051070;28;20115;-57
2022/11/25 13:39:48;;;;;;;12.48;3.38;;;12.60;99.90;;;;;;5055590;28;20108;-58
2022/11/25 13:42:25;;;;;;;14.77;3.63;;;;;;;;;;5048246;28;20096;-58
2022/11/25 13:44:56;;;;;;;11.60;3.00;;;;;;;;;;5053089;28;20411;-57
2022/11/25 13:47:28;;;;;;;11.48;3.00;;;;;;;;;;5052994;28;20037;-57
2022/11/25 13:50:06;;;;;;;14.55;4.15;;;12.20;99.90;;;;;;5033555;28;20059;-58
2022/11/25 13:52:47;;;;;;;14.90;3.97;;;12.30;99.90;;;;;;5035448;28;20048;-58
2022/11/25 13:55:16;;;;;;;17.48;3.40;;;;;;;;;;5049688;28;20045;-58
2022/11/25 13:57:46;;;;;;;20.33;3.70;;;11.80;99.90;;;;;;5052793;28;20037;-58
2022/11/25 14:00:33;;;;;;;22.10;4.93;;;12.10;99.90;;;;;;5052812;28;20414;-58
2022/11/25 14:03:17;;;;;;;13.88;4.22;;;11.70;99.90;;;;;;5053070;28;20223;-58
2022/11/25 14:05:49;;;;;;;16.80;3.70;;;;;;;;;;5053000;28;20132;-60
2022/11/25 14:08:21;;;;;;;17.38;4.25;;;;;;;;;;5051752;28;20037;-58
2022/11/25 14:11:25;;;;;;;18.52;3.60;;;12.50;99.90;;;;;;5052366;28;20041;-58
2022/11/25 14:14:14;;;;;;;14.68;3.70;;;;;;;;;;4975375;28;20455;-58
2022/11/25 14:16:53;;;;;;;12.77;3.13;;;;;;;;;;5047148;28;20099;-58
2022/11/25 14:19:22;;;;;;;15.25;3.50;;;;;;;;;;5051628;28;20407;-58
2022/11/25 14:21:54;;;;;;;17.58;4.03;;;;;;;;;;5051595;28;20498;-59
2022/11/25 14:24:21;;;;;;;15.25;2.92;;;;;;;;;;5051069;28;20037;-58
2022/11/25 14:26:51;;;;;;;21.90;4.80;;;;;;;;;;5050181;28;20102;-58
2022/11/25 14:29:23;;;;;;;13.90;2.95;;;;;;;;;;5050275;28;20059;-58